Time;durP1;ratioP1;P1;durP2;ratioP2;P2;SDS_P1;SDS_P2;PMS_P1;PMS_P2;Temp;Humidity;BMP_temperature;BMP_pressure;BME280_temperature;BME280_humidity;BME280_pressure;Samples;Min_cycle;Max_cycle;Signal;HPM_P1;HPM_P2
2024/01/10 00:00:14;;;;;;;0.30;0.30;;;1.90;99.90;;;;;;5093324;28;20211;-75
2024/01/10 00:02:40;;;;;;;0.40;0.30;;;1.90;99.90;;;;;;5091283;28;20677;-75
2024/01/10 00:05:06;;;;;;;0.30;0.20;;;1.90;99.90;;;;;;5092356;28;20865;-75
2024/01/10 00:07:32;;;;;;;0.30;0.30;;;1.90;99.90;;;;;;5091034;28;20684;-75
2024/01/10 00:09:59;;;;;;;0.30;0.20;;;1.90;99.90;;;;;;5091250;28;20271;-78
2024/01/10 00:12:25;;;;;;;0.30;0.30;;;1.80;99.90;;;;;;5091116;28;20184;-76
2024/01/10 00:14:51;;;;;;;0.30;0.30;;;1.80;99.90;;;;;;5092049;28;20172;-79
2024/01/10 00:17:17;;;;;;;0.30;0.20;;;1.80;99.90;;;;;;5092525;28;20392;-79
2024/01/10 00:19:42;;;;;;;0.30;0.20;;;1.80;99.90;;;;;;5091165;28;20200;-75
2024/01/10 00:22:08;;;;;;;0.30;0.30;;;1.70;99.90;;;;;;5091541;28;20677;-75
2024/01/10 00:24:33;;;;;;;0.30;0.30;;;1.70;99.90;;;;;;5091776;28;20726;-79
2024/01/10 00:26:59;;;;;;;0.30;0.30;;;1.70;99.90;;;;;;5090958;28;20317;-75
2024/01/10 00:29:25;;;;;;;0.30;0.20;;;1.60;99.90;;;;;;5092028;28;20275;-75
2024/01/10 00:31:52;;;;;;;0.30;0.20;;;1.60;99.90;;;;;;5092160;28;20181;-79
2024/01/10 00:34:18;;;;;;;0.30;0.30;;;1.60;99.90;;;;;;5090600;28;20414;-79
2024/01/10 00:36:43;;;;;;;0.30;0.30;;;1.50;99.90;;;;;;5092293;28;20283;-79
2024/01/10 00:39:09;;;;;;;0.30;0.30;;;1.50;99.90;;;;;;5090669;28;20203;-75
2024/01/10 00:41:35;;;;;;;0.30;0.30;;;1.50;99.90;;;;;;5090933;28;20264;-75
2024/01/10 00:44:00;;;;;;;0.30;0.30;;;1.50;99.90;;;;;;5090190;28;20220;-79
2024/01/10 00:46:26;;;;;;;0.30;0.30;;;1.40;99.90;;;;;;5092291;28;20176;-79
2024/01/10 00:48:51;;;;;;;0.30;0.20;;;1.40;99.90;;;;;;5090001;28;20308;-79
2024/01/10 00:51:17;;;;;;;0.30;0.30;;;1.40;99.90;;;;;;5092547;28;20175;-74
2024/01/10 00:53:43;;;;;;;0.30;0.30;;;1.40;99.90;;;;;;5090246;28;20203;-74
2024/01/10 00:56:09;;;;;;;0.30;0.30;;;1.40;99.90;;;;;;5091763;28;20184;-74
2024/01/10 00:58:35;;;;;;;0.30;0.30;;;1.30;99.90;;;;;;5090114;28;20208;-77
2024/01/10 01:01:01;;;;;;;0.30;0.30;;;1.30;99.90;;;;;;5091671;28;20197;-74
2024/01/10 01:03:27;;;;;;;0.30;0.20;;;1.30;99.90;;;;;;5091537;28;20771;-78
2024/01/10 01:05:53;;;;;;;0.30;0.30;;;1.20;99.90;;;;;;5091368;28;20722;-74
2024/01/10 01:08:18;;;;;;;0.30;0.30;;;1.20;99.90;;;;;;5091395;28;20411;-78
2024/01/10 01:10:44;;;;;;;0.30;0.20;;;1.20;99.90;;;;;;5090233;28;20586;-74
2024/01/10 01:13:10;;;;;;;0.30;0.20;;;1.20;99.90;;;;;;5091055;28;20196;-76
2024/01/10 01:15:35;;;;;;;0.30;0.30;;;1.20;99.90;;;;;;5091275;28;20417;-73
2024/01/10 01:18:01;;;;;;;0.30;0.30;;;1.10;99.90;;;;;;5091155;28;20731;-78
2024/01/10 01:20:26;;;;;;;0.30;0.30;;;1.10;99.90;;;;;;5091534;28;20179;-76
2024/01/10 01:22:52;;;;;;;0.30;0.30;;;1.00;99.90;;;;;;5089103;28;20692;-78
2024/01/10 01:25:18;;;;;;;0.30;0.30;;;1.00;99.90;;;;;;5091574;28;20311;-77
2024/01/10 01:27:44;;;;;;;0.30;0.30;;;0.90;99.90;;;;;;5089498;28;20688;-74
2024/01/10 01:30:11;;;;;;;0.30;0.30;;;0.90;99.90;;;;;;5091413;28;20200;-74
2024/01/10 01:32:37;;;;;;;0.30;0.30;;;0.80;99.90;;;;;;5089583;28;20185;-78
2024/01/10 01:35:03;;;;;;;0.30;0.30;;;0.80;99.90;;;;;;5088816;28;20184;-78
2024/01/10 01:37:29;;;;;;;0.30;0.30;;;0.70;99.90;;;;;;5090116;28;20815;-78
2024/01/10 01:39:54;;;;;;;0.30;0.30;;;0.70;99.90;;;;;;5090683;28;20303;-77
2024/01/10 01:42:20;;;;;;;0.50;0.50;;;0.70;99.90;;;;;;5090757;28;20221;-78
2024/01/10 01:44:45;;;;;;;0.30;0.30;;;0.60;99.90;;;;;;5090193;28;20212;-74
2024/01/10 01:47:11;;;;;;;0.30;0.30;;;0.60;99.90;;;;;;5091031;28;20180;-75
2024/01/10 01:49:37;;;;;;;0.30;0.30;;;0.50;99.90;;;;;;5090488;28;20547;-74
2024/01/10 01:52:03;;;;;;;0.30;0.30;;;0.50;99.90;;;;;;5089474;28;20188;-74
2024/01/10 01:54:32;;;;;;;0.30;0.30;;;0.50;99.90;;;;;;5090348;28;20563;-74
2024/01/10 01:56:58;;;;;;;0.30;0.30;;;0.40;99.90;;;;;;5090915;28;20172;-78
2024/01/10 01:59:24;;;;;;;0.30;0.30;;;0.40;99.90;;;;;;5088907;28;20287;-74
2024/01/10 02:01:54;;;;;;;0.30;0.30;;;0.30;99.90;;;;;;5090454;28;20205;-74
2024/01/10 02:04:20;;;;;;;0.30;0.30;;;0.30;99.90;;;;;;5088697;28;20298;-78
2024/01/10 02:06:45;;;;;;;0.30;0.20;;;0.30;99.90;;;;;;5090279;28;20224;-74
2024/01/10 02:09:11;;;;;;;0.30;0.20;;;0.30;99.90;;;;;;5088868;28;20672;-78
2024/01/10 02:11:37;;;;;;;0.30;0.30;;;0.30;99.90;;;;;;5090429;28;20824;-74
2024/01/10 02:14:03;;;;;;;0.60;0.60;;;0.20;99.90;;;;;;5089712;28;20313;-78
2024/01/10 02:16:29;;;;;;;0.30;0.30;;;0.20;99.90;;;;;;5090613;28;20869;-78
2024/01/10 02:18:55;;;;;;;0.30;0.30;;;0.20;99.90;;;;;;5089751;28;20196;-78
2024/01/10 02:21:23;;;;;;;0.30;0.30;;;0.20;99.90;;;;;;5090812;28;20179;-74
2024/01/10 02:23:49;;;;;;;0.30;0.30;;;0.10;99.90;;;;;;5089238;28;20600;-77
2024/01/10 02:26:15;;;;;;;0.30;0.30;;;0.10;99.90;;;;;;5090624;28;20327;-77
2024/01/10 02:28:41;;;;;;;0.30;0.28;;;0.10;99.90;;;;;;5090070;28;20223;-74
2024/01/10 02:31:07;;;;;;;0.30;0.30;;;0.10;99.90;;;;;;5090422;28;20176;-78
2024/01/10 02:33:32;;;;;;;0.30;0.30;;;0.10;99.90;;;;;;5088429;28;20204;-78
2024/01/10 02:35:58;;;;;;;0.30;0.30;;;0.00;99.90;;;;;;5090312;28;20522;-77
2024/01/10 02:38:24;;;;;;;0.30;0.30;;;0.00;99.90;;;;;;5089204;28;20419;-74
2024/01/10 02:40:50;;;;;;;0.30;0.30;;;0.00;99.90;;;;;;5087944;28;20180;-78
2024/01/10 02:43:16;;;;;;;0.30;0.30;;;0.00;99.90;;;;;;5088151;28;20198;-74
2024/01/10 02:45:41;;;;;;;0.30;0.30;;;0.00;99.90;;;;;;5089893;28;20665;-78
2024/01/10 02:48:07;;;;;;;0.30;0.30;;;-0.10;99.90;;;;;;5090054;28;20410;-74
2024/01/10 02:50:33;;;;;;;0.30;0.30;;;-0.10;99.90;;;;;;5090009;28;20445;-78
2024/01/10 02:52:58;;;;;;;0.30;0.30;;;-0.10;99.90;;;;;;5088107;28;20200;-74
2024/01/10 02:55:24;;;;;;;0.30;0.30;;;-0.20;99.90;;;;;;5088495;28;20706;-74
2024/01/10 02:57:50;;;;;;;0.30;0.30;;;-0.20;99.90;;;;;;5087882;28;20207;-77
2024/01/10 03:00:16;;;;;;;0.30;0.30;;;-0.20;99.90;;;;;;5090010;28;20259;-78
2024/01/10 03:02:41;;;;;;;0.30;0.30;;;-0.20;99.90;;;;;;5089371;28;20611;-78
2024/01/10 03:05:07;;;;;;;0.30;0.30;;;-0.20;99.90;;;;;;5089089;28;20220;-73
2024/01/10 03:07:33;;;;;;;0.30;0.30;;;-0.20;99.90;;;;;;5089243;28;20218;-73
2024/01/10 03:09:58;;;;;;;0.30;0.30;;;-0.20;99.90;;;;;;5088456;28;20422;-74
2024/01/10 03:12:24;;;;;;;0.30;0.30;;;-0.20;99.90;;;;;;5087854;28;20181;-74
2024/01/10 03:14:50;;;;;;;0.30;0.30;;;-0.30;99.90;;;;;;5087923;28;20181;-78
2024/01/10 03:17:15;;;;;;;0.30;0.30;;;-0.30;99.90;;;;;;5089753;28;20259;-78
2024/01/10 03:19:44;;;;;;;0.30;0.30;;;-0.30;99.90;;;;;;5089340;28;20599;-74
2024/01/10 03:22:11;;;;;;;0.30;0.30;;;-0.30;99.90;;;;;;5087780;28;20180;-78
2024/01/10 03:24:37;;;;;;;0.30;0.30;;;-0.40;99.90;;;;;;5088384;28;20826;-76
2024/01/10 03:27:03;;;;;;;0.30;0.30;;;-0.40;99.90;;;;;;5089575;28;20191;-77
2024/01/10 03:29:29;;;;;;;0.30;0.30;;;-0.50;99.90;;;;;;5089020;28;20673;-73
2024/01/10 03:31:55;;;;;;;0.30;0.30;;;-0.50;99.90;;;;;;5089865;28;20187;-77
2024/01/10 03:34:20;;;;;;;0.30;0.30;;;-0.50;99.90;;;;;;5087690;28;20219;-74
2024/01/10 03:36:46;;;;;;;0.30;0.30;;;-0.60;99.90;;;;;;5089720;28;20184;-78
2024/01/10 03:39:11;;;;;;;0.30;0.30;;;-0.60;99.90;;;;;;5088769;28;20285;-78
2024/01/10 03:41:38;;;;;;;0.30;0.30;;;-0.60;99.90;;;;;;5088467;28;20185;-75
2024/01/10 03:44:04;;;;;;;0.30;0.30;;;-0.60;99.90;;;;;;5088560;28;20704;-74
2024/01/10 03:46:30;;;;;;;0.40;0.40;;;-0.70;99.90;;;;;;5088013;28;20181;-74
2024/01/10 03:48:56;;;;;;;0.30;0.30;;;-0.70;99.90;;;;;;5088864;28;20200;-74
2024/01/10 03:51:21;;;;;;;0.30;0.30;;;-0.70;99.90;;;;;;5089507;28;20422;-74
2024/01/10 03:53:49;;;;;;;0.30;0.30;;;-0.70;99.90;;;;;;5087442;28;20697;-74
2024/01/10 03:56:14;;;;;;;0.30;0.30;;;-0.80;99.90;;;;;;5088187;28;20192;-78
2024/01/10 03:58:40;;;;;;;0.30;0.30;;;-0.80;99.90;;;;;;5090994;28;20238;-73
2024/01/10 04:01:09;;;;;;;0.30;0.30;;;-0.90;99.90;;;;;;5092784;28;20408;-74
2024/01/10 04:03:36;;;;;;;0.30;0.30;;;-0.90;99.90;;;;;;5092528;28;20429;-73
2024/01/10 04:06:02;;;;;;;0.30;0.30;;;-1.00;99.90;;;;;;5091371;28;20311;-78
2024/01/10 04:08:28;;;;;;;0.30;0.30;;;-1.10;99.90;;;;;;5092178;28;20204;-78
2024/01/10 04:10:54;;;;;;;0.30;0.30;;;-1.10;99.90;;;;;;5091168;28;20229;-74
2024/01/10 04:13:20;;;;;;;0.30;0.30;;;-1.20;99.90;;;;;;5092347;28;20408;-73
2024/01/10 04:15:45;;;;;;;0.30;0.30;;;-1.20;99.90;;;;;;5092492;28;20169;-78
2024/01/10 04:18:11;;;;;;;0.30;0.30;;;-1.20;99.90;;;;;;5092010;28;20203;-77
2024/01/10 04:20:36;;;;;;;0.30;0.30;;;-1.20;99.90;;;;;;5091401;28;20286;-74
2024/01/10 04:23:02;;;;;;;0.30;0.30;;;-1.20;99.90;;;;;;5091945;28;20219;-78
2024/01/10 04:25:28;;;;;;;0.30;0.30;;;-1.20;99.90;;;;;;5090642;28;20227;-74
2024/01/10 04:27:55;;;;;;;0.40;0.40;;;-1.30;99.90;;;;;;5091772;28;20434;-73
2024/01/10 04:30:21;;;;;;;0.30;0.30;;;-1.30;99.90;;;;;;5091120;28;20192;-73
2024/01/10 04:32:46;;;;;;;0.30;0.30;;;-1.30;99.90;;;;;;5090585;28;20192;-74
2024/01/10 04:35:12;;;;;;;0.30;0.30;;;-1.30;99.90;;;;;;5092350;28;20204;-73
2024/01/10 04:37:37;;;;;;;0.30;0.30;;;-1.30;99.90;;;;;;5092065;28;20177;-73
2024/01/10 04:40:04;;;;;;;0.30;0.30;;;-1.20;99.90;;;;;;5092289;28;20656;-74
2024/01/10 04:42:31;;;;;;;0.30;0.30;;;-1.20;99.90;;;;;;5090468;28;20177;-78
2024/01/10 04:44:56;;;;;;;0.30;0.30;;;-1.10;99.90;;;;;;5091849;28;20261;-74
2024/01/10 04:47:22;;;;;;;0.50;0.50;;;-1.10;99.90;;;;;;5092151;28;21042;-74
2024/01/10 04:49:48;;;;;;;0.30;0.30;;;-1.00;99.90;;;;;;5090680;28;20629;-78
2024/01/10 04:52:13;;;;;;;0.30;0.30;;;-0.90;99.90;;;;;;5091954;28;20168;-78
2024/01/10 04:54:39;;;;;;;0.30;0.30;;;-0.80;99.90;;;;;;5090064;28;20196;-73
2024/01/10 04:57:05;;;;;;;0.30;0.30;;;-0.80;99.90;;;;;;5092113;28;20184;-74
2024/01/10 04:59:30;;;;;;;0.30;0.30;;;-0.80;99.90;;;;;;5090089;28;20686;-78
2024/01/10 05:01:56;;;;;;;0.30;0.30;;;-0.70;99.90;;;;;;5091763;28;20173;-78
2024/01/10 05:04:22;;;;;;;0.30;0.30;;;-0.70;99.90;;;;;;5090055;28;20597;-78
2024/01/10 05:06:48;;;;;;;0.30;0.30;;;-0.70;99.90;;;;;;5091672;28;20454;-74
2024/01/10 05:09:13;;;;;;;0.30;0.30;;;-0.70;99.90;;;;;;5089919;28;20192;-79
2024/01/10 05:11:39;;;;;;;0.30;0.30;;;-0.60;99.90;;;;;;5090669;28;20175;-79
2024/01/10 05:14:05;;;;;;;0.30;0.30;;;-0.60;99.90;;;;;;5090780;28;20482;-78
2024/01/10 05:16:31;;;;;;;0.30;0.30;;;-0.60;99.90;;;;;;5090132;28;20607;-79
2024/01/10 05:19:00;;;;;;;0.30;0.30;;;-0.60;99.90;;;;;;5089650;28;20358;-74
2024/01/10 05:21:26;;;;;;;0.30;0.30;;;-0.60;99.90;;;;;;5088352;28;20676;-75
2024/01/10 05:23:52;;;;;;;0.30;0.30;;;-0.60;99.90;;;;;;5089504;28;20193;-75
2024/01/10 05:26:17;;;;;;;0.30;0.30;;;-0.60;99.90;;;;;;5089065;28;20188;-75
2024/01/10 05:28:43;;;;;;;0.37;0.37;;;-0.60;99.90;;;;;;5086557;28;20201;-74
2024/01/10 05:31:08;;;;;;;0.30;0.30;;;-0.60;99.90;;;;;;5088837;28;20230;-75
2024/01/10 05:33:34;;;;;;;0.30;0.30;;;-0.60;99.90;;;;;;5089075;28;20565;-78
2024/01/10 05:36:00;;;;;;;0.30;0.30;;;-0.60;99.90;;;;;;5091431;28;20176;-78
2024/01/10 05:38:29;;;;;;;0.30;0.20;;;-0.50;99.90;;;;;;5090358;28;20271;-75
2024/01/10 05:40:54;;;;;;;0.30;0.30;;;-0.50;99.90;;;;;;5089078;28;20188;-76
2024/01/10 05:43:21;;;;;;;0.30;0.20;;;-0.50;99.90;;;;;;5089042;28;20284;-80
2024/01/10 05:45:47;;;;;;;0.30;0.30;;;-0.50;99.90;;;;;;5087749;28;20216;-76
2024/01/10 05:48:13;;;;;;;0.30;0.30;;;-0.50;99.90;;;;;;5089561;28;20196;-80
2024/01/10 05:50:39;;;;;;;0.30;0.30;;;-0.50;99.90;;;;;;5090403;28;20257;-79
2024/01/10 05:53:04;;;;;;;0.30;0.30;;;-0.40;99.90;;;;;;5088852;28;20212;-79
2024/01/10 05:55:30;;;;;;;0.30;0.30;;;-0.40;99.90;;;;;;5087910;28;20186;-80
2024/01/10 05:57:56;;;;;;;0.30;0.30;;;-0.30;99.90;;;;;;5079750;28;20733;-76
2024/01/10 06:00:21;;;;;;;0.30;0.30;;;-0.30;99.90;;;;;;5076793;28;20184;-80
2024/01/10 06:02:47;;;;;;;0.30;0.30;;;-0.40;99.90;;;;;;5086495;28;20286;-80
2024/01/10 06:05:13;;;;;;;0.30;0.30;;;-0.60;99.90;;;;;;5084538;28;20235;-76
2024/01/10 06:07:41;;;;;;;0.30;0.30;;;-0.90;99.90;;;;;;5087430;28;20630;-76
2024/01/10 06:10:07;;;;;;;0.30;0.30;;;-1.10;99.90;;;;;;5086706;28;20275;-76
2024/01/10 06:12:33;;;;;;;0.30;0.30;;;-1.30;99.90;;;;;;5087939;28;20187;-80
2024/01/10 06:14:58;;;;;;;0.30;0.30;;;-1.40;99.90;;;;;;5089094;28;20673;-75
2024/01/10 06:17:24;;;;;;;0.30;0.30;;;-1.50;99.90;;;;;;5089086;28;20258;-80
2024/01/10 06:19:50;;;;;;;0.30;0.30;;;-1.50;99.90;;;;;;5089089;28;20641;-79
2024/01/10 06:22:17;;;;;;;0.30;0.30;;;-1.60;99.90;;;;;;5089824;28;20372;-76
2024/01/10 06:24:43;;;;;;;0.30;0.30;;;-1.60;99.90;;;;;;5087208;28;20758;-75
2024/01/10 06:27:09;;;;;;;0.30;0.30;;;-1.70;99.90;;;;;;5088664;28;20180;-76
2024/01/10 06:29:36;;;;;;;0.30;0.30;;;-1.70;99.90;;;;;;5088624;28;20204;-80
2024/01/10 06:32:06;;;;;;;0.30;0.30;;;-1.80;99.90;;;;;;5089113;28;20388;-80
2024/01/10 06:34:32;;;;;;;0.30;0.30;;;-1.80;99.90;;;;;;5087714;28;20895;-80
2024/01/10 06:36:58;;;;;;;0.30;0.30;;;-1.80;99.90;;;;;;5086406;28;20718;-79
2024/01/10 06:39:24;;;;;;;0.30;0.30;;;-1.80;99.90;;;;;;5087151;28;20208;-79
2024/01/10 06:41:50;;;;;;;0.30;0.30;;;-1.90;99.90;;;;;;5086439;28;20417;-79
2024/01/10 06:44:21;;;;;;;0.30;0.30;;;-1.90;99.90;;;;;;5087044;28;20307;-79
2024/01/10 06:46:47;;;;;;;0.30;0.30;;;-1.90;99.90;;;;;;5087735;28;20169;-78
2024/01/10 06:49:14;;;;;;;0.30;0.30;;;-1.90;99.90;;;;;;5085985;28;20253;-75
2024/01/10 06:51:40;;;;;;;0.30;0.30;;;-1.90;99.90;;;;;;5086058;28;20325;-74
2024/01/10 06:54:05;;;;;;;0.30;0.30;;;-1.80;99.90;;;;;;5083444;28;20282;-78
2024/01/10 06:56:32;;;;;;;0.30;0.30;;;-1.80;99.90;;;;;;5080731;28;20188;-75
2024/01/10 06:58:59;;;;;;;0.30;0.30;;;-1.70;99.90;;;;;;5075361;28;20299;-74
2024/01/10 07:01:24;;;;;;;0.30;0.30;;;-1.70;99.90;;;;;;5083942;28;20631;-74
2024/01/10 07:03:52;;;;;;;0.30;0.30;;;-1.70;99.90;;;;;;5082779;28;20287;-78
2024/01/10 07:06:17;;;;;;;0.30;0.30;;;-1.60;99.90;;;;;;5083527;28;20286;-74
2024/01/10 07:08:47;;;;;;;0.40;0.40;;;-1.50;99.90;;;;;;5081577;28;20234;-79
2024/01/10 07:11:12;;;;;;;0.30;0.30;;;-1.30;99.90;;;;;;5081045;28;20776;-74
2024/01/10 07:13:38;;;;;;;0.30;0.30;;;-1.00;99.90;;;;;;5078012;28;20246;-74
2024/01/10 07:16:04;;;;;;;0.30;0.30;;;-0.90;99.90;;;;;;5074786;28;20763;-74
2024/01/10 07:18:32;;;;;;;0.30;0.30;;;-0.90;99.90;;;;;;5081307;28;20188;-74
2024/01/10 07:20:58;;;;;;;0.30;0.30;;;-0.90;99.90;;;;;;5078039;28;20180;-75
2024/01/10 07:23:24;;;;;;;0.30;0.30;;;-0.80;99.90;;;;;;5079623;28;20749;-74
2024/01/10 07:25:50;;;;;;;0.30;0.30;;;-0.80;99.90;;;;;;5081658;28;20455;-79
2024/01/10 07:28:17;;;;;;;0.30;0.30;;;-0.80;99.90;;;;;;5081777;28;20231;-78
2024/01/10 07:30:44;;;;;;;0.30;0.30;;;-0.80;99.90;;;;;;5080048;28;20409;-75
2024/01/10 07:33:10;;;;;;;0.30;0.30;;;-0.70;99.90;;;;;;5077410;28;20212;-74
2024/01/10 07:35:36;;;;;;;0.30;0.30;;;-0.70;99.90;;;;;;5086269;28;20173;-74
2024/01/10 07:38:01;;;;;;;0.30;0.30;;;-0.60;99.90;;;;;;5081278;28;20265;-79
2024/01/10 07:40:27;;;;;;;0.30;0.30;;;-0.40;99.90;;;;;;5081711;28;20786;-74
2024/01/10 07:42:52;;;;;;;0.30;0.30;;;-0.10;99.90;;;;;;5072901;28;20193;-74
2024/01/10 07:45:18;;;;;;;3.10;3.00;;;0.40;99.90;;;;;;5082589;28;20700;-75
2024/01/10 07:47:46;;;;;;;0.47;0.47;;;0.80;99.90;;;;;;5045794;28;20216;-79
2024/01/10 07:50:15;;;;;;;0.30;0.30;;;1.10;99.90;;;;;;5038086;28;20219;-79
2024/01/10 07:52:40;;;;;;;0.30;0.30;;;1.60;99.90;;;;;;5084888;28;20185;-79
2024/01/10 07:55:08;;;;;;;0.60;0.60;;;2.20;99.90;;;;;;5086040;28;20226;-79
2024/01/10 07:57:34;;;;;;;0.30;0.30;;;2.70;99.90;;;;;;5079889;28;20187;-75
2024/01/10 08:00:00;;;;;;;0.40;0.40;;;3.20;99.90;;;;;;5079478;28;20200;-79
2024/01/10 08:02:25;;;;;;;0.30;0.30;;;3.70;99.90;;;;;;5080229;28;20390;-75
2024/01/10 08:04:52;;;;;;;0.33;0.30;;;4.20;99.90;;;;;;5092939;27;20212;-74
2024/01/10 08:07:18;;;;;;;0.32;0.30;;;4.90;99.90;;;;;;5083577;28;20175;-79
2024/01/10 08:09:43;;;;;;;0.30;0.30;;;5.50;99.90;;;;;;5087565;28;20295;-79
2024/01/10 08:12:09;;;;;;;0.40;0.33;;;6.10;99.90;;;;;;5100001;27;20230;-75
2024/01/10 08:14:35;;;;;;;0.40;0.30;;;6.90;99.90;;;;;;5084376;28;20200;-75
2024/01/10 08:17:00;;;;;;;0.40;0.40;;;7.60;99.90;;;;;;5085523;28;20816;-75
2024/01/10 08:19:27;;;;;;;0.40;0.30;;;8.30;99.90;;;;;;5093199;28;20706;-78
2024/01/10 08:21:53;;;;;;;0.40;0.30;;;9.00;99.90;;;;;;5086969;28;20203;-76
2024/01/10 08:24:20;;;;;;;0.40;0.30;;;9.60;99.90;;;;;;5117635;27;22392;-79
2024/01/10 08:26:51;;;;;;;2.17;2.08;;;10.20;99.90;;;;;;5089614;28;20195;-76
2024/01/10 08:29:20;;;;;;;0.40;0.30;;;10.80;99.90;;;;;;5090597;28;20200;-79
2024/01/10 08:31:47;;;;;;;3.42;3.22;;;11.30;99.10;;;;;;5079311;28;20175;-76
2024/01/10 08:34:12;;;;;;;5.07;4.70;;;11.70;97.90;;;;;;5106638;27;20202;-75
2024/01/10 08:36:38;;;;;;;1.37;1.33;;;12.00;96.80;;;;;;5087843;28;20712;-75
2024/01/10 08:39:04;;;;;;;33.03;27.90;;;12.30;95.70;;;;;;5092173;28;20195;-77
2024/01/10 08:41:30;;;;;;;0.40;0.30;;;12.50;95.30;;;;;;5092460;28;20183;-74
2024/01/10 08:43:56;;;;;;;1.80;1.70;;;12.60;94.10;;;;;;5085736;28;20206;-74
2024/01/10 08:46:24;;;;;;;0.30;0.30;;;12.50;94.30;;;;;;5093138;28;20192;-78
2024/01/10 08:48:50;;;;;;;0.40;0.30;;;12.40;93.60;;;;;;5098368;27;20590;-75
2024/01/10 08:51:16;;;;;;;0.83;0.83;;;12.50;93.50;;;;;;5087086;28;20184;-79
2024/01/10 08:53:43;;;;;;;0.40;0.30;;;12.70;92.80;;;;;;5087162;28;20455;-78
2024/01/10 08:56:10;;;;;;;0.60;0.60;;;13.10;93.10;;;;;;5082554;28;20425;-79
2024/01/10 08:58:36;;;;;;;3.13;3.00;;;13.50;92.00;;;;;;5092311;28;20486;-76
2024/01/10 09:01:02;;;;;;;0.40;0.40;;;13.80;90.80;;;;;;5087110;28;20471;-76
2024/01/10 09:03:28;;;;;;;3.50;2.00;;;14.10;91.30;;;;;;5087087;28;20828;-78
2024/01/10 09:05:54;;;;;;;0.93;0.93;;;14.60;90.70;;;;;;5087420;28;20459;-75
2024/01/10 09:08:19;;;;;;;2.53;2.33;;;15.00;89.10;;;;;;5085769;28;20410;-76
2024/01/10 09:10:45;;;;;;;2.87;2.77;;;15.40;88.60;;;;;;5091260;28;20709;-78
2024/01/10 09:13:11;;;;;;;4.17;2.27;;;15.90;86.90;;;;;;5084989;28;20210;-79
2024/01/10 09:15:36;;;;;;;1.67;0.93;;;16.30;84.30;;;;;;5086525;28;20229;-76
2024/01/10 09:18:02;;;;;;;3.03;1.43;;;16.60;83.00;;;;;;5095821;27;21072;-75
2024/01/10 09:20:28;;;;;;;0.67;0.67;;;16.90;82.80;;;;;;5081273;28;20182;-78
2024/01/10 09:22:54;;;;;;;0.83;0.83;;;17.20;80.40;;;;;;5087317;28;20200;-77
2024/01/10 09:25:20;;;;;;;0.60;0.60;;;17.50;80.60;;;;;;5070584;28;20219;-75
2024/01/10 09:27:46;;;;;;;0.50;0.50;;;17.70;79.60;;;;;;5081112;28;20448;-78
2024/01/10 09:30:13;;;;;;;0.40;0.30;;;18.00;77.80;;;;;;5079015;28;20191;-76
2024/01/10 09:32:39;;;;;;;0.77;0.77;;;18.30;76.80;;;;;;5078866;28;20444;-79
2024/01/10 09:35:05;;;;;;;0.40;0.30;;;18.30;74.90;;;;;;5083890;28;20429;-76
2024/01/10 09:37:30;;;;;;;12.30;5.80;;;18.30;75.30;;;;;;5089641;28;20456;-79
2024/01/10 09:39:56;;;;;;;1.97;1.87;;;18.30;73.60;;;;;;5087253;28;20531;-75
2024/01/10 09:42:25;;;;;;;4.07;3.90;;;18.30;74.50;;;;;;5087132;28;20177;-79
2024/01/10 09:44:52;;;;;;;2.70;2.60;;;18.30;74.50;;;;;;5078432;28;20555;-78
2024/01/10 09:47:19;;;;;;;0.50;0.50;;;18.20;73.10;;;;;;5029690;28;21334;-79
2024/01/10 09:49:46;;;;;;;0.57;0.50;;;18.10;73.60;;;;;;5061064;28;20441;-75
2024/01/10 09:52:19;;;;;;;1.00;1.00;;;18.20;68.90;;;;;;5039093;28;20425;-76
2024/01/10 09:54:48;;;;;;;0.40;0.30;;;18.00;67.20;;;;;;5033478;28;20450;-75
2024/01/10 09:57:14;;;;;;;0.40;0.40;;;17.80;68.20;;;;;;5039571;28;20420;-75
2024/01/10 09:59:43;;;;;;;0.83;0.83;;;17.30;66.30;;;;;;5067634;27;20473;-75
2024/01/10 10:02:09;;;;;;;0.77;0.77;;;16.80;67.40;;;;;;5084862;28;20269;-78
2024/01/10 10:04:38;;;;;;;0.67;0.67;;;16.50;69.20;;;;;;5085760;28;20578;-79
2024/01/10 10:07:04;;;;;;;0.40;0.30;;;16.20;69.90;;;;;;5065703;28;20570;-78
2024/01/10 10:09:31;;;;;;;0.50;0.50;;;16.00;70.70;;;;;;5082373;28;20432;-78
2024/01/10 10:11:59;;;;;;;0.40;0.20;;;15.70;69.70;;;;;;5081069;28;20187;-75
2024/01/10 10:14:29;;;;;;;0.40;0.30;;;15.30;70.60;;;;;;5092630;28;20428;-75
2024/01/10 10:16:54;;;;;;;1.33;1.23;;;14.90;72.20;;;;;;5097868;28;20962;-75
2024/01/10 10:19:24;;;;;;;0.40;0.30;;;14.60;72.30;;;;;;5064589;28;20440;-78
2024/01/10 10:21:50;;;;;;;0.40;0.30;;;14.10;71.80;;;;;;5025556;28;20188;-77
2024/01/10 10:24:17;;;;;;;1.43;1.37;;;13.70;73.50;;;;;;5022152;28;20490;-74
2024/01/10 10:26:42;;;;;;;10.10;9.70;;;13.30;73.90;;;;;;5021698;28;20884;-78
2024/01/10 10:29:09;;;;;;;0.50;0.50;;;13.00;74.60;;;;;;5050909;28;20451;-78
2024/01/10 10:31:35;;;;;;;1.13;1.13;;;12.50;73.50;;;;;;5083521;28;20210;-78
2024/01/10 10:34:02;;;;;;;0.40;0.20;;;12.20;75.20;;;;;;5068656;28;20457;-78
2024/01/10 10:36:29;;;;;;;0.40;0.30;;;11.80;75.50;;;;;;5072292;28;20423;-74
2024/01/10 10:38:55;;;;;;;0.30;0.20;;;11.50;77.10;;;;;;5056669;27;20440;-78
2024/01/10 10:41:21;;;;;;;0.40;0.30;;;11.20;77.20;;;;;;5084899;28;22192;-75
2024/01/10 10:43:50;;;;;;;0.30;0.20;;;11.00;78.20;;;;;;5082023;28;20494;-78
2024/01/10 10:46:16;;;;;;;0.30;0.20;;;10.80;78.90;;;;;;5085871;28;20566;-75
2024/01/10 10:48:42;;;;;;;0.40;0.30;;;10.60;79.00;;;;;;5081618;28;20197;-74
2024/01/10 10:51:10;;;;;;;2.17;1.20;;;10.40;81.30;;;;;;5081943;28;20184;-75
2024/01/10 10:53:42;;;;;;;0.50;0.50;;;10.20;81.10;;;;;;5069263;28;20226;-79
2024/01/10 10:56:09;;;;;;;0.30;0.20;;;10.00;80.50;;;;;;5084200;28;20184;-78
2024/01/10 10:58:40;;;;;;;0.30;0.20;;;9.80;81.00;;;;;;5078939;28;20270;-79
2024/01/10 11:01:07;;;;;;;0.30;0.20;;;9.60;82.40;;;;;;5085850;28;20168;-75
2024/01/10 11:03:36;;;;;;;0.30;0.20;;;9.40;83.30;;;;;;5078413;28;20228;-78
2024/01/10 11:06:03;;;;;;;1.13;1.08;;;9.30;84.00;;;;;;5089534;28;20298;-77
2024/01/10 11:08:47;;;;;;;0.30;0.30;;;9.10;83.80;;;;;;5077870;28;20196;-77
2024/01/10 11:11:47;;;;;;;0.45;0.45;;;8.90;83.30;;;;;;5091397;28;20176;-74
2024/01/10 11:14:15;;;;;;;0.30;0.20;;;8.70;84.80;;;;;;5084292;28;20646;-74
2024/01/10 11:16:41;;;;;;;0.30;0.20;;;8.50;84.30;;;;;;5086968;28;20185;-74
2024/01/10 11:19:42;;;;;;;0.30;0.20;;;8.40;85.80;;;;;;5082184;28;20207;-74
2024/01/10 11:22:37;;;;;;;2.53;2.42;;;8.20;84.80;;;;;;5087373;28;20176;-75
2024/01/10 11:25:03;;;;;;;0.30;0.20;;;8.10;86.60;;;;;;5095725;28;20310;-75
2024/01/10 11:27:30;;;;;;;0.30;0.30;;;8.00;87.60;;;;;;5084858;28;20270;-75
2024/01/10 11:29:56;;;;;;;46.22;11.70;;;7.90;87.60;;;;;;5086508;28;20438;-74
2024/01/10 11:32:26;;;;;;;0.30;0.20;;;7.90;86.00;;;;;;5088286;28;20282;-74
2024/01/10 11:34:55;;;;;;;0.30;0.20;;;7.80;86.20;;;;;;5105010;27;20740;-78
2024/01/10 11:37:21;;;;;;;0.30;0.20;;;7.60;86.70;;;;;;5081001;28;20233;-74
2024/01/10 11:39:47;;;;;;;0.30;0.30;;;7.50;86.90;;;;;;5084518;28;20333;-75
2024/01/10 11:42:23;;;;;;;0.30;0.20;;;7.40;88.50;;;;;;5081782;28;20203;-75
2024/01/10 11:44:49;;;;;;;0.30;0.20;;;7.40;87.80;;;;;;5078559;28;20664;-78
2024/01/10 11:47:16;;;;;;;0.30;0.28;;;7.50;87.70;;;;;;5078539;28;20626;-75
2024/01/10 11:49:54;;;;;;;0.30;0.20;;;7.60;87.50;;;;;;5077249;28;20559;-74
2024/01/10 11:52:23;;;;;;;4.95;2.22;;;7.60;87.80;;;;;;5052097;28;20185;-74
2024/01/10 11:54:50;;;;;;;0.30;0.30;;;7.60;87.40;;;;;;5073546;28;20190;-75
2024/01/10 11:57:25;;;;;;;0.30;0.20;;;7.60;85.90;;;;;;5073227;28;20525;-74
2024/01/10 11:59:52;;;;;;;0.30;0.20;;;7.70;87.30;;;;;;5071260;28;20180;-74
2024/01/10 12:02:19;;;;;;;0.40;0.40;;;7.70;87.10;;;;;;5075743;28;20215;-78
2024/01/10 12:04:46;;;;;;;0.30;0.20;;;7.70;87.80;;;;;;5066408;28;20304;-77
2024/01/10 12:07:12;;;;;;;0.30;0.20;;;7.60;87.00;;;;;;5022172;28;21080;-74
2024/01/10 12:09:38;;;;;;;0.30;0.30;;;7.60;87.00;;;;;;5023120;28;20463;-74
2024/01/10 12:12:05;;;;;;;0.30;0.20;;;7.60;86.90;;;;;;5070361;28;20184;-74
2024/01/10 12:14:31;;;;;;;0.30;0.20;;;7.50;88.00;;;;;;5072944;28;21476;-77
2024/01/10 12:16:59;;;;;;;0.30;0.20;;;7.60;88.70;;;;;;5082222;28;20187;-74
2024/01/10 12:19:24;;;;;;;0.30;0.20;;;7.60;89.00;;;;;;5080793;28;20208;-77
2024/01/10 12:21:50;;;;;;;0.30;0.20;;;7.60;88.30;;;;;;5075581;28;20181;-74
2024/01/10 12:24:16;;;;;;;0.30;0.20;;;7.70;88.00;;;;;;5071191;28;20687;-77
2024/01/10 12:26:49;;;;;;;0.30;0.20;;;7.70;88.00;;;;;;5078583;28;20191;-74
2024/01/10 12:29:25;;;;;;;0.30;0.30;;;7.70;88.00;;;;;;5038090;28;20283;-74
2024/01/10 12:31:50;;;;;;;0.30;0.30;;;7.70;87.90;;;;;;5029629;28;20175;-74
2024/01/10 12:34:16;;;;;;;0.30;0.20;;;7.70;88.20;;;;;;5028749;28;20605;-78
2024/01/10 12:36:43;;;;;;;0.30;0.30;;;7.70;88.00;;;;;;5029627;28;21698;-76
2024/01/10 12:39:09;;;;;;;0.30;0.20;;;7.70;88.30;;;;;;5071648;28;20419;-77
2024/01/10 12:41:35;;;;;;;0.30;0.28;;;7.70;86.70;;;;;;5081713;28;20180;-75
2024/01/10 12:44:06;;;;;;;0.30;0.20;;;7.70;87.80;;;;;;5083435;28;20200;-74
2024/01/10 12:46:32;;;;;;;0.30;0.20;;;7.70;88.10;;;;;;5078995;28;20348;-74